createdAt,value
2023-03-18T00:00:45.515Z,9.10
2023-03-18T00:03:15.690Z,8.88
2023-03-18T00:05:43.792Z,9.20
2023-03-18T00:08:12.524Z,9.80
2023-03-18T00:10:40.781Z,8.93
2023-03-18T00:13:08.556Z,9.10
2023-03-18T00:15:37.126Z,9.75
2023-03-18T00:18:05.170Z,10.57
2023-03-18T00:20:39.410Z,9.60
2023-03-18T00:23:08.673Z,9.52
2023-03-18T00:25:37.471Z,9.88
2023-03-18T00:28:06.316Z,8.82
2023-03-18T00:30:35.001Z,10.55
2023-03-18T00:33:02.829Z,8.43
2023-03-18T00:35:31.284Z,9.02
2023-03-18T00:38:00.471Z,9.38
2023-03-18T00:40:42.808Z,9.87
2023-03-18T00:43:12.824Z,9.50
2023-03-18T00:45:42.610Z,8.75
2023-03-18T00:48:11.062Z,8.77
2023-03-18T00:50:38.948Z,8.35
2023-03-18T00:53:08.239Z,9.30
2023-03-18T00:55:36.097Z,8.77
2023-03-18T00:58:03.984Z,9.38
2023-03-18T01:00:32.116Z,10.23
2023-03-18T01:03:00.147Z,9.38
2023-03-18T01:05:28.215Z,8.90
2023-03-18T01:07:55.978Z,8.88
2023-03-18T01:10:25.556Z,9.40
2023-03-18T01:12:55.329Z,9.05
2023-03-18T01:15:23.919Z,8.63
2023-03-18T01:17:54.273Z,8.40
2023-03-18T01:20:23.612Z,8.98
2023-03-18T01:22:51.523Z,8.82
2023-03-18T01:25:20.279Z,7.85
2023-03-18T01:27:49.466Z,8.00
2023-03-18T01:30:17.768Z,8.45
2023-03-18T01:32:46.610Z,8.50
2023-03-18T01:35:14.439Z,8.00
2023-03-18T01:37:43.760Z,8.02
2023-03-18T01:40:13.651Z,7.07
2023-03-18T01:42:41.456Z,7.60
2023-03-18T01:45:21.565Z,7.63
2023-03-18T01:47:49.932Z,8.07
2023-03-18T01:50:20.321Z,7.47
2023-03-18T01:52:49.937Z,7.50
2023-03-18T01:55:20.883Z,7.65
2023-03-18T01:57:49.898Z,7.30
2023-03-18T02:00:21.495Z,7.65
2023-03-18T02:02:52.719Z,7.82
2023-03-18T02:05:22.641Z,7.38
2023-03-18T02:07:51.321Z,7.88
2023-03-18T02:10:21.666Z,7.73
2023-03-18T02:12:52.759Z,7.45
2023-03-18T02:15:24.549Z,7.50
2023-03-18T02:17:57.692Z,6.82
2023-03-18T02:20:38.172Z,9.60
2023-03-18T02:23:13.608Z,6.93
2023-03-18T02:25:50.820Z,8.68
2023-03-18T02:28:23.747Z,6.78
2023-03-18T02:30:54.074Z,6.90
2023-03-18T02:33:24.857Z,6.90
2023-03-18T02:35:58.521Z,6.85
2023-03-18T02:38:26.401Z,6.60
2023-03-18T02:40:54.840Z,6.35
2023-03-18T02:43:27.190Z,6.00
2023-03-18T02:46:29.716Z,7.00
2023-03-18T02:48:59.053Z,6.13
2023-03-18T02:51:27.754Z,5.93
2023-03-18T02:53:59.864Z,6.05
2023-03-18T02:56:27.621Z,6.45
2023-03-18T02:58:57.734Z,6.67
2023-03-18T03:01:26.283Z,6.10
2023-03-18T03:03:54.055Z,5.72
2023-03-18T03:06:21.889Z,5.93
2023-03-18T03:08:49.732Z,6.13
2023-03-18T03:11:18.597Z,6.03
2023-03-18T03:13:46.841Z,7.83
2023-03-18T03:16:17.477Z,5.45
2023-03-18T03:18:45.709Z,6.47
2023-03-18T03:21:14.597Z,5.75
2023-03-18T03:23:42.674Z,5.57
2023-03-18T03:26:11.619Z,5.25
2023-03-18T03:28:39.395Z,5.07
2023-03-18T03:31:08.784Z,5.68
2023-03-18T03:33:41.161Z,6.10
2023-03-18T03:36:10.520Z,5.72
2023-03-18T03:38:38.546Z,5.53
2023-03-18T03:41:06.397Z,5.55
2023-03-18T03:43:34.882Z,5.45
2023-03-18T03:46:02.770Z,5.70
2023-03-18T03:48:30.591Z,6.97
2023-03-18T03:50:59.865Z,5.90
2023-03-18T03:53:28.115Z,4.90
2023-03-18T03:55:58.994Z,4.97
2023-03-18T03:58:27.653Z,5.45
2023-03-18T04:00:55.760Z,4.82
2023-03-18T04:03:23.589Z,5.05
2023-03-18T04:05:51.385Z,4.95
2023-03-18T04:08:20.580Z,5.70
2023-03-18T04:10:48.979Z,4.35
2023-03-18T04:13:16.800Z,5.00
2023-03-18T04:15:45.020Z,5.35
2023-03-18T04:18:13.201Z,5.73
2023-03-18T04:20:41.678Z,5.25
2023-03-18T04:23:09.772Z,4.15
2023-03-18T04:25:38.905Z,4.15
2023-03-18T04:28:06.776Z,4.75
2023-03-18T04:30:34.679Z,4.28
2023-03-18T04:33:03.273Z,4.30
2023-03-18T04:35:31.282Z,4.75
2023-03-18T04:37:59.564Z,4.78
2023-03-18T04:40:27.402Z,5.15
2023-03-18T04:42:56.533Z,4.28
2023-03-18T04:45:24.810Z,4.90
2023-03-18T04:47:52.777Z,4.55
2023-03-18T04:50:20.687Z,4.20
2023-03-18T04:52:48.547Z,5.00
2023-03-18T04:55:17.919Z,4.95
2023-03-18T04:57:46.004Z,5.50
2023-03-18T05:00:18.189Z,4.88
2023-03-18T05:02:46.148Z,4.77
2023-03-18T05:05:14.336Z,6.65
2023-03-18T05:07:43.197Z,5.82
2023-03-18T05:10:13.445Z,4.20
2023-03-18T05:12:42.055Z,4.45
2023-03-18T05:15:12.131Z,4.47
2023-03-18T05:17:41.577Z,6.45
2023-03-18T05:20:11.456Z,4.72
2023-03-18T05:22:39.342Z,4.93
2023-03-18T05:25:08.748Z,4.80
2023-03-18T05:27:36.616Z,5.97
2023-03-18T05:30:05.005Z,6.07
2023-03-18T05:32:32.975Z,5.55
2023-03-18T05:35:03.721Z,4.13
2023-03-18T05:37:31.538Z,5.78
2023-03-18T05:39:59.930Z,5.50
2023-03-18T05:42:29.067Z,4.65
2023-03-18T05:44:57.879Z,5.75
2023-03-18T05:47:25.952Z,5.15
2023-03-18T05:49:53.768Z,5.07
2023-03-18T05:52:23.087Z,4.07
2023-03-18T05:54:51.009Z,4.07
2023-03-18T05:57:18.992Z,4.40
2023-03-18T05:59:46.829Z,4.95
2023-03-18T06:02:14.680Z,4.53
2023-03-18T06:04:42.583Z,4.13
2023-03-18T06:07:12.141Z,4.00
2023-03-18T06:09:41.398Z,5.13
2023-03-18T06:12:09.727Z,4.82
2023-03-18T06:14:37.748Z,5.37
2023-03-18T06:17:05.599Z,5.60
2023-03-18T06:19:34.067Z,5.10
2023-03-18T06:22:01.860Z,5.40
2023-03-18T06:24:29.687Z,4.22
2023-03-18T06:26:59.003Z,5.35
2023-03-18T06:29:26.885Z,5.20
2023-03-18T06:31:54.977Z,3.50
2023-03-18T06:34:23.595Z,3.65
2023-03-18T06:36:52.231Z,3.35
2023-03-18T06:39:20.749Z,4.45
2023-03-18T06:41:48.477Z,5.55
2023-03-18T06:44:17.625Z,3.50
2023-03-18T06:46:45.441Z,3.30
2023-03-18T06:49:13.476Z,4.78
2023-03-18T06:51:41.272Z,5.37
2023-03-18T06:54:09.964Z,3.70
2023-03-18T06:56:38.886Z,3.90
2023-03-18T06:59:07.897Z,3.50
2023-03-18T07:01:38.062Z,4.80
2023-03-18T07:04:06.797Z,3.90
2023-03-18T07:06:34.908Z,5.10
2023-03-18T07:09:02.792Z,3.70
2023-03-18T07:11:30.690Z,4.97
2023-03-18T07:13:58.538Z,4.72
2023-03-18T07:16:26.357Z,5.20
2023-03-18T07:18:58.153Z,3.50
2023-03-18T07:21:26.136Z,4.53
2023-03-18T07:23:55.467Z,4.80
2023-03-18T07:26:24.009Z,3.92
2023-03-18T07:28:52.224Z,5.05
2023-03-18T07:31:20.071Z,6.57
2023-03-18T07:33:48.693Z,4.20
2023-03-18T07:36:17.887Z,6.27
2023-03-18T07:38:46.097Z,6.05
2023-03-18T07:41:13.925Z,4.40
2023-03-18T07:43:41.887Z,4.38
2023-03-18T07:46:09.788Z,4.82
2023-03-18T07:48:37.655Z,5.20
2023-03-18T07:51:06.145Z,3.97
2023-03-18T07:53:35.842Z,3.83
2023-03-18T07:56:04.190Z,4.63
2023-03-18T07:58:32.571Z,4.00
2023-03-18T08:01:00.630Z,3.55
2023-03-18T08:03:28.930Z,3.93
2023-03-18T08:05:57.285Z,3.80
2023-03-18T08:08:25.470Z,4.22
2023-03-18T08:10:58.531Z,3.33
2023-03-18T08:13:26.941Z,3.70
2023-03-18T08:15:55.994Z,5.90
2023-03-18T08:18:24.032Z,5.55
2023-03-18T08:20:52.917Z,4.40
2023-03-18T08:23:20.757Z,4.60
2023-03-18T08:25:50.007Z,5.00
2023-03-18T08:28:19.885Z,4.07
2023-03-18T08:30:47.668Z,3.88
2023-03-18T08:33:15.884Z,4.63
2023-03-18T08:35:43.731Z,4.68
2023-03-18T08:38:11.770Z,4.15
2023-03-18T08:40:41.568Z,4.38
2023-03-18T08:43:09.819Z,5.53
2023-03-18T08:45:39.376Z,4.63
2023-03-18T08:48:08.153Z,5.85
2023-03-18T08:50:36.746Z,5.45
2023-03-18T08:53:05.596Z,4.10
2023-03-18T08:55:35.828Z,3.67
2023-03-18T08:58:05.481Z,4.70
2023-03-18T09:00:34.184Z,4.60
2023-03-18T09:03:03.865Z,5.47
2023-03-18T09:05:32.852Z,7.72
2023-03-18T09:08:01.225Z,5.47
2023-03-18T09:10:30.287Z,4.55
2023-03-18T09:12:58.181Z,5.67
2023-03-18T09:15:27.272Z,4.57
2023-03-18T09:18:10.292Z,3.78
2023-03-18T09:20:40.833Z,9.70
2023-03-18T09:23:09.157Z,4.47
2023-03-18T09:25:37.271Z,3.22
2023-03-18T09:28:05.382Z,4.32
2023-03-18T09:30:33.770Z,6.15
2023-03-18T09:33:01.824Z,4.70
2023-03-18T09:35:30.458Z,3.20
2023-03-18T09:37:59.892Z,6.63
2023-03-18T09:40:30.488Z,4.93
2023-03-18T09:43:10.784Z,3.92
2023-03-18T09:45:46.972Z,3.47
2023-03-18T09:48:37.620Z,5.15
2023-03-18T09:51:14.133Z,5.20
2023-03-18T09:53:48.491Z,5.95
2023-03-18T09:56:20.042Z,3.60
2023-03-18T09:58:53.733Z,7.30
2023-03-18T10:01:23.546Z,4.68
2023-03-18T10:03:56.740Z,9.57
2023-03-18T10:06:25.854Z,4.85
2023-03-18T10:09:02.248Z,5.53
2023-03-18T10:11:33.529Z,5.57
2023-03-18T10:14:15.903Z,4.97
2023-03-18T10:16:56.594Z,4.72
2023-03-18T10:19:24.914Z,4.35
2023-03-18T10:22:02.807Z,3.72
2023-03-18T10:24:38.733Z,3.30
2023-03-18T10:27:14.965Z,5.00
2023-03-18T10:29:46.601Z,5.38
2023-03-18T10:32:24.352Z,6.13
2023-03-18T10:35:03.974Z,4.03
2023-03-18T10:37:52.164Z,8.23
2023-03-18T10:40:21.888Z,3.00
2023-03-18T10:42:51.664Z,4.65
2023-03-18T10:45:24.901Z,4.20
2023-03-18T10:48:00.396Z,3.63
2023-03-18T10:50:35.188Z,4.00
2023-03-18T10:53:13.188Z,4.82
2023-03-18T10:55:51.857Z,5.50
2023-03-18T10:58:20.559Z,4.15
2023-03-18T11:00:49.921Z,5.78
2023-03-18T11:03:23.646Z,5.18
2023-03-18T11:05:53.266Z,5.37
2023-03-18T11:08:36.442Z,5.35
2023-03-18T11:11:28.399Z,4.45
2023-03-18T11:13:58.361Z,3.95
2023-03-18T11:16:31.430Z,6.07
2023-03-18T11:18:59.653Z,5.30
2023-03-18T11:21:29.730Z,4.83
2023-03-18T11:24:20.964Z,6.88
2023-03-18T11:26:55.867Z,5.57
2023-03-18T11:29:27.260Z,7.72
2023-03-18T11:31:58.148Z,4.63
2023-03-18T11:34:27.102Z,5.90
2023-03-18T11:36:58.944Z,4.28
2023-03-18T11:39:28.702Z,7.63
2023-03-18T11:41:59.349Z,4.10
2023-03-18T11:44:31.599Z,4.82
2023-03-18T11:47:05.038Z,4.47
2023-03-18T11:49:33.456Z,5.45
2023-03-18T11:52:30.809Z,6.13
2023-03-18T11:55:19.043Z,4.55
2023-03-18T11:58:16.504Z,4.90
2023-03-18T12:00:50.205Z,7.88
2023-03-18T12:03:53.519Z,5.93
2023-03-18T12:06:23.115Z,6.22
2023-03-18T12:09:01.068Z,5.40
2023-03-18T12:11:44.563Z,6.55
2023-03-18T12:14:19.964Z,4.90
2023-03-18T12:16:59.262Z,6.05
2023-03-18T12:19:50.599Z,5.73
2023-03-18T12:22:33.638Z,5.82
2023-03-18T12:25:19.677Z,9.15
2023-03-18T12:27:59.486Z,8.73
2023-03-18T12:30:46.362Z,7.15
2023-03-18T12:33:28.328Z,6.55
2023-03-18T12:36:05.227Z,7.37
2023-03-18T12:38:56.675Z,5.67
2023-03-18T12:41:32.008Z,5.95
2023-03-18T12:44:14.235Z,11.50
2023-03-18T12:46:49.384Z,5.78
2023-03-18T12:49:22.340Z,5.90
2023-03-18T12:51:57.127Z,8.45
2023-03-18T12:54:30.140Z,5.30
2023-03-18T12:57:04.703Z,5.53
2023-03-18T12:59:36.386Z,4.47
2023-03-18T13:02:31.495Z,5.43
2023-03-18T13:05:02.737Z,5.55
2023-03-18T13:07:38.743Z,10.23
2023-03-18T13:10:18.331Z,5.70
2023-03-18T13:12:49.479Z,8.07
2023-03-18T13:15:28.008Z,6.55
2023-03-18T13:18:00.257Z,4.85
2023-03-18T13:20:31.674Z,6.15
2023-03-18T13:23:13.851Z,5.63
2023-03-18T13:25:53.359Z,4.30
2023-03-18T13:28:45.836Z,5.20
2023-03-18T13:31:23.999Z,4.72
2023-03-18T13:34:06.384Z,6.05
2023-03-18T13:36:58.384Z,4.22
2023-03-18T13:39:49.430Z,4.32
2023-03-18T13:42:23.497Z,4.35
2023-03-18T13:44:59.804Z,5.13
2023-03-18T13:47:31.838Z,3.83
2023-03-18T13:50:03.615Z,5.05
2023-03-18T13:52:37.728Z,5.20
2023-03-18T13:55:08.840Z,2.95
2023-03-18T13:57:57.058Z,4.70
2023-03-18T14:00:32.974Z,3.33
2023-03-18T14:03:15.834Z,4.88
2023-03-18T14:05:46.827Z,6.85
2023-03-18T14:08:48.186Z,6.45
2023-03-18T14:11:50.263Z,4.17
2023-03-18T14:14:42.990Z,5.22
2023-03-18T14:17:33.486Z,4.57
2023-03-18T14:20:10.364Z,4.90
2023-03-18T14:22:40.172Z,6.40
2023-03-18T14:25:23.530Z,4.70
2023-03-18T14:27:54.806Z,5.10
2023-03-18T14:30:48.074Z,5.22
2023-03-18T14:33:34.359Z,5.53
2023-03-18T14:36:09.385Z,4.55
2023-03-18T14:38:46.472Z,5.03
2023-03-18T14:41:19.994Z,6.43
2023-03-18T14:43:55.845Z,3.75
2023-03-18T14:46:31.719Z,3.75
2023-03-18T14:48:59.778Z,5.07
2023-03-18T14:51:31.433Z,5.63
2023-03-18T14:54:05.799Z,5.57
2023-03-18T14:56:40.433Z,4.53
2023-03-18T14:59:13.266Z,5.15
2023-03-18T15:01:45.177Z,5.47
2023-03-18T15:04:19.049Z,5.15
2023-03-18T15:06:47.044Z,4.85
2023-03-18T15:09:20.491Z,5.90
2023-03-18T15:11:48.957Z,3.60
2023-03-18T15:14:21.513Z,4.53
2023-03-18T15:16:53.945Z,5.72
2023-03-18T15:19:23.147Z,5.30
2023-03-18T15:21:52.155Z,5.22
2023-03-18T15:24:23.715Z,5.50
2023-03-18T15:26:58.702Z,6.60
2023-03-18T15:29:29.073Z,5.90
2023-03-18T15:32:10.582Z,6.72
2023-03-18T15:34:42.122Z,5.13
2023-03-18T15:37:33.444Z,4.82
2023-03-18T15:43:00.507Z,4.68
2023-03-18T15:45:30.701Z,6.20
2023-03-18T15:48:05.620Z,5.57
2023-03-18T15:50:34.625Z,5.72
2023-03-18T15:53:05.248Z,5.30
2023-03-18T15:55:35.536Z,6.28
2023-03-18T15:58:14.169Z,5.93
2023-03-18T16:00:43.025Z,6.95
2023-03-18T16:03:18.523Z,5.78
2023-03-18T16:05:46.455Z,5.95
2023-03-18T16:08:21.295Z,5.15
2023-03-18T16:10:51.445Z,6.15
2023-03-18T16:13:27.569Z,5.80
2023-03-18T16:15:55.417Z,6.13
2023-03-18T16:18:23.738Z,6.20
2023-03-18T16:20:53.828Z,7.13
2023-03-18T16:23:22.348Z,7.65
2023-03-18T16:25:52.042Z,5.35
2023-03-18T16:28:22.601Z,6.57
2023-03-18T16:30:53.433Z,6.28
2023-03-18T16:33:21.696Z,5.32
2023-03-18T16:35:58.416Z,6.75
2023-03-18T16:38:28.308Z,7.53
2023-03-18T16:40:57.517Z,7.85
2023-03-18T16:43:27.287Z,5.07
2023-03-18T16:46:00.209Z,5.18
2023-03-18T16:48:28.894Z,6.65
2023-03-18T16:50:58.333Z,8.55
2023-03-18T16:53:29.562Z,7.18
2023-03-18T16:56:00.030Z,6.97
2023-03-18T16:58:33.083Z,4.63
2023-03-18T17:01:04.537Z,4.65
2023-03-18T17:03:32.901Z,6.05
2023-03-18T17:06:00.799Z,5.43
2023-03-18T17:08:28.587Z,6.88
2023-03-18T17:10:59.090Z,7.78
2023-03-18T17:13:29.849Z,6.50
2023-03-18T17:15:57.827Z,8.43
2023-03-18T17:18:27.830Z,6.90
2023-03-18T17:20:55.716Z,11.50
2023-03-18T17:23:26.613Z,11.27
2023-03-18T17:25:55.821Z,7.18
2023-03-18T17:28:31.076Z,8.07
2023-03-18T17:30:59.949Z,8.88
2023-03-18T17:33:31.039Z,6.97
2023-03-18T17:36:00.479Z,7.30
2023-03-18T17:38:28.829Z,6.40
2023-03-18T17:40:56.671Z,7.95
2023-03-18T17:43:28.998Z,7.07
2023-03-18T17:45:58.136Z,7.07
2023-03-18T17:48:27.439Z,6.38
2023-03-18T17:50:59.685Z,5.88
2023-03-18T17:53:33.221Z,7.80
2023-03-18T17:56:01.749Z,7.47
2023-03-18T17:58:31.746Z,6.60
2023-03-18T18:01:05.478Z,6.43
2023-03-18T18:03:35.151Z,6.00
2023-03-18T18:06:04.670Z,8.18
2023-03-18T18:08:32.797Z,8.52
2023-03-18T18:11:10.805Z,6.72
2023-03-18T18:13:38.613Z,10.13
2023-03-18T18:16:06.981Z,7.57
2023-03-18T18:18:36.877Z,7.78
2023-03-18T18:21:11.514Z,10.05
2023-03-18T18:23:40.007Z,7.68
2023-03-18T18:26:09.410Z,7.50
2023-03-18T18:28:39.288Z,8.02
2023-03-18T18:31:09.197Z,7.03
2023-03-18T18:33:38.494Z,6.75
2023-03-18T18:36:08.729Z,6.53
2023-03-18T18:38:36.676Z,8.43
2023-03-18T18:41:04.737Z,7.40
2023-03-18T18:43:32.932Z,8.65
2023-03-18T18:46:01.150Z,7.00
2023-03-18T18:48:31.518Z,10.10
2023-03-18T18:50:59.510Z,8.90
2023-03-18T18:53:30.870Z,7.43
2023-03-18T18:56:00.943Z,7.22
2023-03-18T18:58:30.702Z,9.60
2023-03-18T19:00:59.692Z,8.90
2023-03-18T19:03:31.372Z,7.43
2023-03-18T19:06:01.280Z,9.02
2023-03-18T19:08:34.279Z,8.13
2023-03-18T19:11:03.689Z,9.47
2023-03-18T19:13:33.112Z,6.60
2023-03-18T19:16:04.134Z,8.02
2023-03-18T19:18:38.420Z,9.10
2023-03-18T19:21:06.798Z,7.88
2023-03-18T19:23:36.656Z,8.23
2023-03-18T19:26:07.278Z,8.00
2023-03-18T19:28:58.415Z,7.88
2023-03-18T19:31:30.305Z,8.05
2023-03-18T19:34:00.379Z,9.30
2023-03-18T19:36:30.874Z,8.43
2023-03-18T19:39:01.507Z,8.63
2023-03-18T19:41:30.305Z,7.65
2023-03-18T19:44:03.806Z,9.07
2023-03-18T19:46:38.851Z,8.05
2023-03-18T19:49:19.044Z,6.72
2023-03-18T19:51:48.745Z,9.50
2023-03-18T19:54:28.176Z,7.15
2023-03-18T19:56:57.296Z,7.25
2023-03-18T19:59:33.591Z,8.80
2023-03-18T20:02:05.398Z,7.57
2023-03-18T20:04:33.276Z,8.82
2023-03-18T20:07:01.453Z,9.18
2023-03-18T20:09:31.157Z,9.00
2023-03-18T20:12:04.681Z,9.77
2023-03-18T20:14:37.859Z,10.07
2023-03-18T20:17:33.249Z,9.63
2023-03-18T20:20:01.197Z,7.70
2023-03-18T20:22:32.854Z,10.80
2023-03-18T20:25:02.506Z,10.18
2023-03-18T20:27:31.471Z,9.20
2023-03-18T20:29:59.528Z,10.55
2023-03-18T20:32:27.649Z,11.43
2023-03-18T20:34:55.620Z,9.82
2023-03-18T20:37:30.866Z,8.93
2023-03-18T20:39:58.790Z,10.32
2023-03-18T20:42:28.240Z,11.43
2023-03-18T20:44:56.187Z,11.13
2023-03-18T20:47:24.041Z,10.35
2023-03-18T20:49:51.842Z,11.70
2023-03-18T20:52:27.948Z,9.65
2023-03-18T20:54:57.078Z,10.95
2023-03-18T20:57:25.296Z,12.10
2023-03-18T20:59:54.588Z,10.93
2023-03-18T21:02:31.254Z,12.57
2023-03-18T21:05:00.310Z,12.63
2023-03-18T21:07:31.497Z,10.10
2023-03-18T21:09:59.311Z,9.88
2023-03-18T21:12:27.442Z,12.20
2023-03-18T21:14:56.648Z,12.63
2023-03-18T21:17:26.363Z,10.50
2023-03-18T21:20:00.724Z,10.35
2023-03-18T21:22:33.274Z,11.75
2023-03-18T21:25:01.106Z,10.90
2023-03-18T21:27:29.759Z,11.48
2023-03-18T21:29:58.903Z,10.60
2023-03-18T21:32:29.732Z,11.43
2023-03-18T21:34:57.687Z,11.23
2023-03-18T21:37:27.329Z,10.88
2023-03-18T21:39:55.659Z,12.20
2023-03-18T21:42:25.277Z,13.98
2023-03-18T21:44:53.327Z,9.30
2023-03-18T21:47:24.158Z,11.57
2023-03-18T21:49:52.035Z,10.15
2023-03-18T21:52:23.546Z,10.05
2023-03-18T21:54:51.637Z,12.55
2023-03-18T21:57:21.902Z,11.80
2023-03-18T21:59:50.836Z,9.82
2023-03-18T22:02:27.390Z,10.57
2023-03-18T22:04:56.734Z,11.45
2023-03-18T22:07:24.709Z,11.20
2023-03-18T22:09:52.636Z,14.45
2023-03-18T22:12:23.817Z,9.10
2023-03-18T22:14:51.690Z,10.50
2023-03-18T22:17:26.388Z,9.68
2023-03-18T22:19:55.611Z,9.07
2023-03-18T22:22:24.627Z,9.70
2023-03-18T22:24:52.680Z,11.60
2023-03-18T22:27:22.582Z,11.05
2023-03-18T22:29:51.758Z,10.38
2023-03-18T22:32:36.350Z,8.77
2023-03-18T22:35:05.216Z,8.87
2023-03-18T22:37:32.994Z,10.35
2023-03-18T22:40:01.388Z,10.07
2023-03-18T22:42:29.341Z,8.48
2023-03-18T22:44:57.195Z,9.57
2023-03-18T22:47:26.757Z,10.55
2023-03-18T22:49:55.854Z,9.75
2023-03-18T22:52:26.207Z,9.05
2023-03-18T22:54:56.769Z,9.90
2023-03-18T22:57:28.467Z,9.85
2023-03-18T22:59:58.197Z,13.30
2023-03-18T23:02:27.462Z,10.45
2023-03-18T23:04:57.448Z,10.63
2023-03-18T23:07:28.870Z,9.10
2023-03-18T23:09:59.164Z,9.60
2023-03-18T23:12:30.166Z,9.35
2023-03-18T23:14:58.746Z,7.95
2023-03-18T23:17:28.855Z,8.73
2023-03-18T23:19:58.821Z,12.43
2023-03-18T23:22:29.243Z,11.07
2023-03-18T23:24:57.633Z,9.50
2023-03-18T23:27:27.149Z,8.93
2023-03-18T23:29:55.912Z,10.30
2023-03-18T23:32:24.777Z,9.43
2023-03-18T23:34:52.659Z,10.35
2023-03-18T23:37:23.512Z,10.98
2023-03-18T23:39:51.317Z,9.27
2023-03-18T23:42:20.764Z,9.90
2023-03-18T23:44:49.109Z,9.93
2023-03-18T23:47:17.372Z,11.73
2023-03-18T23:49:45.141Z,11.23
2023-03-18T23:52:15.670Z,11.05
2023-03-18T23:54:44.813Z,10.32
2023-03-18T23:57:13.096Z,11.68
2023-03-18T23:59:41.195Z,11.30
